Time;durP1;ratioP1;P1;durP2;ratioP2;P2;SDS_P1;SDS_P2;PMS_P1;PMS_P2;Temp;Humidity;BMP_temperature;BMP_pressure;BME280_temperature;BME280_humidity;BME280_pressure;Samples;Min_cycle;Max_cycle;Signal;HPM_P1;HPM_P2
2023/03/25 00:01:28;;;;;;;0.20;0.10;;;;;;;10.45;61.09;101948.81;4962207;28;20055;-81
2023/03/25 00:03:57;;;;;;;1.17;0.20;;;;;;;10.33;60.49;101958.53;4964977;28;20147;-81
2023/03/25 00:06:25;;;;;;;0.80;0.10;;;;;;;10.21;62.97;101969.13;4966561;28;20043;-84
2023/03/25 00:08:54;;;;;;;0.43;0.22;;;;;;;10.10;60.29;101978.97;4963247;28;20111;-83
2023/03/25 00:11:24;;;;;;;1.40;0.30;;;;;;;9.89;61.12;101970.06;4973178;28;20126;-82
2023/03/25 00:13:54;;;;;;;0.20;0.10;;;;;;;9.79;59.36;101990.28;4969868;28;20054;-82
2023/03/25 00:16:23;;;;;;;0.47;0.25;;;;;;;9.61;58.49;101997.06;4970750;28;20134;-84
2023/03/25 00:18:52;;;;;;;0.73;0.40;;;;;;;9.41;59.42;101981.41;4969953;28;20163;-88
2023/03/25 00:21:22;;;;;;;0.00;0.00;;;;;;;9.26;62.75;101970.22;4968294;28;20073;-85
2023/03/25 00:23:51;;;;;;;0.20;0.10;;;;;;;9.21;62.12;101987.19;4965569;28;20047;-84
2023/03/25 00:26:19;;;;;;;0.00;0.00;;;;;;;9.06;62.87;101987.22;4969092;28;20711;-83
2023/03/25 00:28:48;;;;;;;0.30;0.20;;;;;;;8.92;63.20;101972.66;4967442;28;20137;-84
2023/03/25 00:31:18;;;;;;;1.13;0.30;;;;;;;8.96;66.07;101982.34;4966857;28;20054;-81
2023/03/25 00:33:49;;;;;;;1.02;0.20;;;;;;;8.94;65.53;101977.09;4959947;28;20062;-85
2023/03/25 00:36:18;;;;;;;1.38;0.35;;;;;;;8.87;66.04;101967.25;4953187;28;20051;-82
2023/03/25 00:38:50;;;;;;;0.90;0.10;;;;;;;8.79;63.23;101968.50;4945322;28;20145;-84
2023/03/25 00:41:21;;;;;;;0.70;0.30;;;;;;;8.77;65.74;101968.44;4950210;28;20046;-84
2023/03/25 00:43:51;;;;;;;0.23;0.20;;;;;;;8.77;65.42;101957.19;4946117;28;20501;-84
2023/03/25 00:46:26;;;;;;;1.30;0.40;;;;;;;8.78;68.71;101969.31;4951872;28;20046;-84
2023/03/25 00:48:55;;;;;;;1.95;0.30;;;;;;;8.70;65.24;101960.22;4945062;28;20063;-84
2023/03/25 00:51:25;;;;;;;4.63;0.30;;;;;;;8.74;66.00;101973.41;4948223;28;20054;-82
2023/03/25 00:53:55;;;;;;;1.25;0.40;;;;;;;8.71;67.67;101974.94;4943334;28;20086;-81
2023/03/25 00:56:25;;;;;;;0.20;0.20;;;;;;;8.63;66.91;101965.84;4942112;28;20051;-80
2023/03/25 00:58:54;;;;;;;1.20;0.40;;;;;;;8.60;65.82;101980.34;4943585;29;20363;-82
2023/03/25 01:01:27;;;;;;;0.73;0.40;;;;;;;8.55;63.54;101976.63;4948169;28;20057;-82
2023/03/25 01:03:58;;;;;;;1.05;0.30;;;;;;;8.50;63.98;101978.06;4945435;28;20510;-84
2023/03/25 01:06:31;;;;;;;3.75;0.30;;;;;;;8.45;63.79;101963.09;4948825;28;20122;-85
2023/03/25 01:09:00;;;;;;;0.30;0.20;;;;;;;8.45;65.39;101982.03;4951122;28;20119;-84
2023/03/25 01:11:33;;;;;;;1.13;0.20;;;;;;;8.44;65.29;101982.84;4951084;28;20497;-85
2023/03/25 01:14:03;;;;;;;0.20;0.20;;;;;;;8.41;66.02;101972.38;4949089;28;20047;-86
2023/03/25 01:16:34;;;;;;;0.50;0.30;;;;;;;8.40;65.92;101978.31;4948869;28;20054;-85
2023/03/25 01:19:03;;;;;;;2.38;0.40;;;;;;;8.36;66.34;101977.22;4946684;28;20050;-83
2023/03/25 01:21:35;;;;;;;0.03;0.03;;;;;;;8.41;64.91;101982.69;4944729;28;20454;-85
2023/03/25 01:24:04;;;;;;;0.28;0.10;;;;;;;8.45;66.53;101983.75;4947045;28;20134;-86
2023/03/25 01:26:33;;;;;;;0.52;0.32;;;;;;;8.49;66.69;101991.75;4950786;28;20059;-83
2023/03/25 01:29:03;;;;;;;2.38;0.30;;;;;;;8.48;66.92;101984.81;4946593;28;20055;-81
2023/03/25 01:31:33;;;;;;;0.85;0.13;;;;;;;8.47;65.68;101993.34;4944066;28;20094;-81
2023/03/25 01:34:02;;;;;;;0.47;0.20;;;;;;;8.41;63.97;101990.44;4949486;28;20047;-84
2023/03/25 01:36:34;;;;;;;0.88;0.35;;;;;;;8.41;64.77;101990.44;4950279;28;20070;-86
2023/03/25 01:39:11;;;;;;;0.28;0.20;;;;;;;8.42;66.05;101989.63;4950203;28;20051;-84
2023/03/25 01:41:40;;;;;;;0.63;0.38;;;;;;;8.39;63.94;101989.41;4947728;28;20047;-81
2023/03/25 01:44:10;;;;;;;1.45;0.47;;;;;;;8.39;65.88;101986.84;4948328;28;20059;-85
2023/03/25 01:46:43;;;;;;;1.15;0.50;;;;;;;8.39;67.19;101981.69;4946866;28;20055;-86
2023/03/25 01:49:15;;;;;;;2.08;0.35;;;;;;;8.31;69.49;101985.50;4954853;28;20055;-81
2023/03/25 01:51:46;;;;;;;1.70;0.10;;;;;;;8.21;70.39;101978.03;4949948;28;20058;-86
2023/03/25 01:54:16;;;;;;;1.33;0.50;;;;;;;8.14;71.12;101977.66;4946554;28;20058;-79
2023/03/25 01:56:47;;;;;;;4.07;0.30;;;;;;;8.05;70.24;101974.53;4950800;28;20043;-80
2023/03/25 01:59:18;;;;;;;1.08;0.38;;;;;;;7.97;70.10;101973.19;4945525;28;20114;-78
2023/03/25 02:01:50;;;;;;;1.95;0.45;;;;;;;7.93;71.11;101977.28;4951441;28;20055;-81
2023/03/25 02:04:30;;;;;;;3.87;0.50;;;;;;;7.84;71.56;101981.00;4947019;28;20466;-83
2023/03/25 02:06:59;;;;;;;1.65;0.32;;;;;;;7.76;72.11;101984.00;4947197;28;20115;-84
2023/03/25 02:09:28;;;;;;;0.65;0.30;;;;;;;7.67;72.24;101986.03;4950358;28;20070;-83
2023/03/25 02:11:57;;;;;;;0.47;0.17;;;;;;;7.60;71.61;101993.28;4951914;28;20058;-84
2023/03/25 02:14:29;;;;;;;1.65;0.30;;;;;;;7.48;72.57;101986.56;4945084;28;20122;-84
2023/03/25 02:17:09;;;;;;;4.25;0.30;;;;;;;7.43;72.69;101993.13;4951971;28;20047;-83
2023/03/25 02:20:09;;;;;;;0.50;0.22;;;;;;;7.39;73.52;102003.13;4947513;29;20080;-86
2023/03/25 02:23:13;;;;;;;0.75;0.52;;;;;;;7.33;72.03;102020.00;4956756;28;20082;-83
2023/03/25 02:26:12;;;;;;;1.98;0.22;;;;;;;7.28;71.65;102016.25;4949089;28;20047;-83
2023/03/25 02:28:46;;;;;;;3.25;0.70;;;;;;;7.25;70.20;102005.75;4943073;28;20564;-86
2023/03/25 02:31:39;;;;;;;1.00;0.50;;;;;;;7.23;71.10;102015.03;4946164;28;20071;-88
2023/03/25 02:34:40;;;;;;;0.73;0.22;;;;;;;7.21;70.82;102011.47;4945989;28;20099;-84
2023/03/25 02:37:30;;;;;;;2.63;0.43;;;;;;;7.21;71.14;102014.06;4944734;28;20141;-84
2023/03/25 02:40:07;;;;;;;0.75;0.40;;;;;;;7.16;71.92;102002.59;4943800;29;20139;-79
2023/03/25 02:42:40;;;;;;;1.45;0.55;;;;;;;7.21;71.36;102020.88;4940124;29;20055;-80
2023/03/25 02:45:15;;;;;;;1.73;0.52;;;;;;;7.13;71.27;102008.44;4943899;29;20061;-80
2023/03/25 02:47:47;;;;;;;2.28;0.93;;;;;;;7.17;70.92;102019.81;4924303;29;20875;-81
2023/03/25 02:50:23;;;;;;;0.75;0.52;;;;;;;7.13;70.82;102013.56;4946202;28;20490;-82
2023/03/25 02:52:55;;;;;;;2.05;0.98;;;;;;;7.03;71.59;101997.44;4947816;29;20122;-82
2023/03/25 02:55:29;;;;;;;3.60;0.55;;;;;;;7.10;71.14;102018.53;4949670;29;20035;-84
2023/03/25 02:57:58;;;;;;;3.22;0.40;;;;;;;7.07;69.74;102020.00;4942988;29;20075;-83
2023/03/25 03:00:29;;;;;;;1.10;0.30;;;;;;;6.99;71.33;102014.41;4945532;29;20149;-82
2023/03/25 03:03:00;;;;;;;0.95;0.20;;;;;;;7.06;78.27;102018.25;4949149;29;20065;-79
2023/03/25 03:05:30;;;;;;;1.20;0.50;;;;;;;7.06;74.03;102015.69;4946411;29;20494;-82
2023/03/25 03:08:19;;;;;;;0.93;0.20;;;;;;;7.03;72.29;102021.53;4951700;29;20054;-78
2023/03/25 03:10:59;;;;;;;0.70;0.28;;;;;;;6.98;71.68;102022.88;4946319;29;20047;-81
2023/03/25 03:13:39;;;;;;;1.95;0.45;;;;;;;6.93;70.97;102026.84;4946127;29;20058;-78
2023/03/25 03:16:14;;;;;;;0.77;0.50;;;;;;;6.87;71.32;102022.22;4949187;29;20594;-78
2023/03/25 03:18:52;;;;;;;0.90;0.40;;;;;;;6.86;71.92;102028.13;4945447;29;20044;-79
2023/03/25 03:21:29;;;;;;;1.75;0.47;;;;;;;6.81;72.67;102028.66;4951274;29;20110;-78
2023/03/25 03:24:03;;;;;;;2.35;0.50;;;;;;;6.79;72.96;102025.97;4944731;29;20059;-80
2023/03/25 03:26:41;;;;;;;0.98;0.50;;;;;;;6.77;73.17;102026.66;4945585;29;20050;-78
2023/03/25 03:29:16;;;;;;;2.30;0.70;;;;;;;6.78;73.66;102026.75;4943807;29;20062;-78
2023/03/25 03:31:51;;;;;;;1.27;0.38;;;;;;;6.76;73.33;102030.91;4951771;29;20054;-77
2023/03/25 03:34:27;;;;;;;2.13;0.52;;;;;;;6.67;73.43;102030.31;4947856;29;20047;-82
2023/03/25 03:36:59;;;;;;;0.52;0.32;;;;;;;6.61;74.84;102045.34;4961574;28;20063;-77
2023/03/25 03:39:33;;;;;;;0.40;0.20;;;;;;;6.56;75.39;102051.88;4961676;28;20047;-80
2023/03/25 03:42:10;;;;;;;2.97;0.40;;;;;;;6.41;75.36;102026.88;4964423;28;20051;-80
2023/03/25 03:44:42;;;;;;;2.00;0.30;;;;;;;6.42;75.69;102033.81;4968546;28;20456;-78
2023/03/25 03:47:14;;;;;;;0.20;0.10;;;;;;;6.42;75.88;102038.97;4966817;28;20098;-78
2023/03/25 03:49:47;;;;;;;2.05;0.65;;;;;;;6.37;76.23;102040.34;4966102;28;20055;-79
2023/03/25 03:52:24;;;;;;;4.70;0.75;;;;;;;6.19;76.66;102024.56;4966532;28;20050;-78
2023/03/25 03:54:57;;;;;;;1.38;0.60;;;;;;;6.15;77.77;102043.13;4967712;28;20065;-77
2023/03/25 03:57:34;;;;;;;4.68;0.65;;;;;;;6.05;78.46;102044.19;4965668;28;20054;-78
2023/03/25 04:00:06;;;;;;;2.00;0.45;;;;;;;5.97;79.67;102047.91;4965786;28;20051;-78
2023/03/25 04:02:40;;;;;;;0.77;0.40;;;;;;;5.86;80.38;102038.53;4962519;28;20106;-79
2023/03/25 04:05:17;;;;;;;4.97;0.50;;;;;;;5.80;80.99;102039.00;4962681;28;20047;-78
2023/03/25 04:07:55;;;;;;;5.40;0.55;;;;;;;5.73;82.53;102041.06;4964645;28;20055;-79
2023/03/25 04:10:33;;;;;;;3.25;1.27;;;;;;;5.64;83.98;102052.47;4964340;28;20113;-79
2023/03/25 04:13:09;;;;;;;4.47;0.68;;;;;;;5.58;84.89;102041.75;4965225;28;20050;-77
2023/03/25 04:15:38;;;;;;;1.13;0.45;;;;;;;5.57;85.61;102045.13;4967774;28;20933;-80
2023/03/25 04:18:07;;;;;;;7.82;1.08;;;;;;;5.56;85.58;102061.28;4967591;28;20055;-79
2023/03/25 04:20:37;;;;;;;2.42;0.65;;;;;;;5.55;86.20;102054.38;4962502;28;20055;-81
2023/03/25 04:23:08;;;;;;;3.53;0.57;;;;;;;5.53;86.39;102053.38;4965733;28;20054;-81
2023/03/25 04:25:37;;;;;;;4.55;0.85;;;;;;;5.52;87.23;102056.75;4967644;28;20047;-78
2023/03/25 04:28:07;;;;;;;4.63;0.50;;;;;;;5.50;87.21;102052.25;4964146;28;20055;-80
2023/03/25 04:30:36;;;;;;;2.30;0.50;;;;;;;5.39;87.83;102041.25;4968818;28;20051;-78
2023/03/25 04:33:05;;;;;;;1.80;0.52;;;;;;;5.42;88.62;102054.28;4965692;28;20932;-79
2023/03/25 04:35:34;;;;;;;2.80;1.00;;;;;;;5.32;88.51;102041.59;4959685;28;20074;-77
2023/03/25 04:38:10;;;;;;;2.90;0.80;;;;;;;5.33;89.73;102063.91;4948111;28;20047;-78
2023/03/25 04:40:40;;;;;;;23.17;4.10;;;;;;;5.28;90.85;102062.69;4946149;28;20069;-79
2023/03/25 04:43:10;;;;;;;39.47;15.80;;;;;;;5.30;95.09;102068.84;4953564;28;20106;-78
2023/03/25 04:45:41;;;;;;;33.08;11.82;;;;;;;5.34;95.69;102068.28;4947431;28;20105;-78
2023/03/25 04:48:23;;;;;;;6.72;1.50;;;;;;;5.34;94.02;102071.72;4943720;28;20050;-80
2023/03/25 04:50:54;;;;;;;3.67;0.73;;;;;;;5.28;92.23;102067.81;4946986;28;20082;-77
2023/03/25 04:53:23;;;;;;;2.75;0.50;;;;;;;5.25;94.23;102074.53;4950234;28;20039;-81
2023/03/25 04:55:52;;;;;;;4.22;0.75;;;;;;;5.25;92.97;102071.94;4949122;28;20057;-78
2023/03/25 04:58:23;;;;;;;3.80;0.57;;;;;;;5.20;93.23;102073.31;4949596;28;20048;-76
2023/03/25 05:00:53;;;;;;;0.95;0.40;;;;;;;5.12;92.29;102069.28;4947993;28;20091;-76
2023/03/25 05:03:23;;;;;;;3.58;0.80;;;;;;;5.10;92.64;102073.41;4946813;28;20055;-77
2023/03/25 05:05:52;;;;;;;3.10;0.57;;;;;;;5.10;92.83;102072.50;4956395;28;20089;-76
2023/03/25 05:08:21;;;;;;;2.08;0.60;;;;;;;5.12;93.28;102076.97;4948321;28;20493;-75
2023/03/25 05:10:51;;;;;;;3.80;1.02;;;;;;;5.12;93.47;102081.22;4952027;28;20057;-76
2023/03/25 05:13:20;;;;;;;0.60;0.43;;;;;;;5.15;94.00;102079.75;4948209;28;20058;-80
2023/03/25 05:15:51;;;;;;;5.63;0.90;;;;;;;5.14;93.55;102074.53;4946726;28;20134;-76
2023/03/25 05:18:20;;;;;;;3.15;0.60;;;;;;;5.12;93.64;102069.28;4948735;28;20713;-75
2023/03/25 05:20:49;;;;;;;4.97;0.57;;;;;;;5.08;93.96;102067.25;4948318;28;20047;-81
2023/03/25 05:23:18;;;;;;;1.77;0.45;;;;;;;5.06;94.21;102068.81;4946330;28;20043;-77
2023/03/25 05:25:47;;;;;;;3.72;0.77;;;;;;;4.92;93.40;102062.69;4944924;28;20169;-76
2023/03/25 05:28:19;;;;;;;4.85;0.80;;;;;;;4.86;93.96;102053.69;4948656;28;20062;-78
2023/03/25 05:30:50;;;;;;;2.05;0.88;;;;;;;4.84;93.99;102061.25;4948876;28;20146;-79
2023/03/25 05:33:19;;;;;;;2.95;0.93;;;;;;;4.77;94.39;102059.03;4951095;28;20051;-78
2023/03/25 05:35:48;;;;;;;3.47;1.02;;;;;;;4.72;94.95;102066.38;4945658;28;20504;-77
2023/03/25 05:38:18;;;;;;;0.75;0.60;;;;;;;4.69;95.02;102065.25;4947356;29;20051;-78
2023/03/25 05:40:47;;;;;;;3.95;0.93;;;;;;;4.66;95.11;102080.41;4943534;29;20055;-79
2023/03/25 05:43:21;;;;;;;4.38;0.70;;;;;;;4.62;95.92;102066.44;4946129;29;20121;-79
2023/03/25 05:45:52;;;;;;;3.00;0.63;;;;;;;4.57;96.40;102060.97;4942757;29;20058;-77
2023/03/25 05:48:21;;;;;;;4.20;1.02;;;;;;;4.59;96.22;102059.44;4941386;29;20047;-75
2023/03/25 05:50:50;;;;;;;2.38;0.73;;;;;;;4.57;96.99;102062.66;4944205;29;20073;-75
2023/03/25 05:53:19;;;;;;;2.47;0.52;;;;;;;4.56;97.28;102058.31;4945789;29;20603;-76
2023/03/25 05:55:50;;;;;;;2.63;0.45;;;;;;;4.57;97.58;102060.09;4942780;29;20051;-75
2023/03/25 05:58:19;;;;;;;2.35;1.30;;;;;;;4.54;97.82;102049.63;4943846;29;20047;-76
2023/03/25 06:00:48;;;;;;;5.78;1.08;;;;;;;4.57;98.15;102060.97;4944690;29;20461;-75
2023/03/25 06:03:20;;;;;;;2.83;0.50;;;;;;;4.50;98.92;102051.06;4940471;29;20047;-77
2023/03/25 06:05:52;;;;;;;6.45;0.85;;;;;;;4.47;98.60;102048.28;4948719;29;20130;-74
2023/03/25 06:08:24;;;;;;;3.75;0.60;;;;;;;4.41;98.62;102048.69;4942001;29;20630;-75
2023/03/25 06:10:57;;;;;;;2.03;0.82;;;;;;;4.36;99.51;102042.34;4941436;29;20542;-74
2023/03/25 06:13:25;;;;;;;3.17;0.63;;;;;;;4.35;99.25;102048.25;4941787;29;20414;-76
2023/03/25 06:15:58;;;;;;;0.68;0.30;;;;;;;4.34;100.00;102037.88;4944689;29;20149;-77
2023/03/25 06:18:29;;;;;;;2.47;0.40;;;;;;;4.33;100.00;102049.81;4942410;29;20506;-78
2023/03/25 06:20:58;;;;;;;1.02;0.52;;;;;;;4.32;100.00;102048.00;4943752;29;20078;-77
2023/03/25 06:23:27;;;;;;;0.57;0.35;;;;;;;4.29;99.85;102034.97;4944020;29;20051;-76
2023/03/25 06:25:57;;;;;;;2.45;0.73;;;;;;;4.30;100.00;102039.31;4944844;28;20596;-75
2023/03/25 06:28:26;;;;;;;1.10;0.40;;;;;;;4.36;99.70;102047.47;4946912;29;20506;-74
2023/03/25 06:30:55;;;;;;;1.42;0.50;;;;;;;4.38;99.70;102033.09;4947303;29;20081;-77
2023/03/25 06:33:24;;;;;;;1.23;0.57;;;;;;;4.36;100.00;102023.50;4950136;29;20126;-76
2023/03/25 06:35:55;;;;;;;2.50;0.80;;;;;;;4.37;99.29;102031.28;4951926;28;20079;-76
2023/03/25 06:38:25;;;;;;;2.88;0.93;;;;;;;4.37;99.96;102031.28;4948624;28;20062;-76
2023/03/25 06:40:54;;;;;;;2.47;0.63;;;;;;;4.39;99.16;102026.28;4948679;28;20436;-76
2023/03/25 06:43:23;;;;;;;1.23;0.75;;;;;;;4.43;99.77;102024.88;4950793;28;20047;-76
2023/03/25 06:45:52;;;;;;;0.77;0.25;;;;;;;4.38;98.68;102014.28;4951093;28;20047;-75
2023/03/25 06:48:21;;;;;;;3.70;0.40;;;;;;;4.33;100.00;102011.38;4950036;28;20059;-74
2023/03/25 06:50:50;;;;;;;2.47;1.63;;;;;;;4.34;100.00;102017.38;4949731;28;20094;-75
2023/03/25 06:53:20;;;;;;;4.15;1.25;;;;;;;4.37;100.00;102021.03;4948330;28;20102;-75
2023/03/25 06:55:49;;;;;;;5.70;2.90;;;;;;;4.40;100.00;102015.28;4950731;28;20059;-75
2023/03/25 06:58:18;;;;;;;3.42;0.70;;;;;;;4.43;100.00;102012.94;4950828;28;20047;-75
2023/03/25 07:00:46;;;;;;;2.72;0.93;;;;;;;4.41;100.00;102017.94;4952215;28;20061;-77
2023/03/25 07:03:15;;;;;;;3.40;0.85;;;;;;;4.42;100.00;102013.69;4951457;28;20998;-74
2023/03/25 07:05:44;;;;;;;2.60;0.85;;;;;;;4.38;100.00;102015.16;4950687;28;20059;-75
2023/03/25 07:08:12;;;;;;;3.38;0.52;;;;;;;4.34;100.00;102010.56;4948661;28;20099;-75
2023/03/25 07:10:43;;;;;;;4.45;0.68;;;;;;;4.33;100.00;102007.88;4948552;28;20048;-76
2023/03/25 07:13:12;;;;;;;5.03;1.77;;;;;;;4.32;100.00;102012.13;4950068;28;20062;-75
2023/03/25 07:15:41;;;;;;;3.63;0.88;;;;;;;4.35;100.00;102009.81;4947342;28;20515;-76
2023/03/25 07:18:10;;;;;;;1.67;0.52;;;;;;;4.36;100.00;102009.03;4950286;28;20133;-76
2023/03/25 07:20:38;;;;;;;3.50;1.10;;;;;;;4.32;100.00;102009.56;4951804;28;20062;-75
2023/03/25 07:23:07;;;;;;;3.67;0.63;;;;;;;4.33;100.00;102002.75;4949557;28;20055;-77
2023/03/25 07:25:35;;;;;;;0.95;0.47;;;;;;;4.34;100.00;102005.44;4948590;28;20094;-75
2023/03/25 07:28:06;;;;;;;1.48;0.50;;;;;;;4.29;100.00;101991.41;4950086;28;20838;-75
2023/03/25 07:30:35;;;;;;;2.97;0.38;;;;;;;4.36;100.00;102006.47;4953267;28;20134;-75
2023/03/25 07:33:04;;;;;;;1.40;0.60;;;;;;;4.26;100.00;101988.63;4948729;28;20601;-75
2023/03/25 07:35:33;;;;;;;3.40;0.32;;;;;;;4.30;100.00;101998.31;4949886;28;20457;-75
2023/03/25 07:38:02;;;;;;;0.77;0.30;;;;;;;4.27;100.00;102002.31;4962880;28;20070;-75
2023/03/25 07:40:31;;;;;;;2.25;0.75;;;;;;;4.17;100.00;101980.25;4965197;28;20101;-74
2023/03/25 07:43:00;;;;;;;0.40;0.30;;;;;;;4.26;100.00;101987.72;4965560;28;20051;-74
2023/03/25 07:45:30;;;;;;;1.70;0.40;;;;;;;4.24;100.00;101995.31;4965335;28;20489;-75
2023/03/25 07:48:01;;;;;;;0.25;0.25;;;;;;;4.23;100.00;101990.94;4965292;28;20051;-75
2023/03/25 07:50:30;;;;;;;0.43;0.38;;;;;;;4.18;100.00;101982.91;4967157;28;20074;-74
2023/03/25 07:52:59;;;;;;;4.32;0.70;;;;;;;4.17;100.00;101980.25;4964714;28;20497;-75
2023/03/25 07:55:28;;;;;;;3.97;0.45;;;;;;;4.19;100.00;101988.91;4964923;28;20462;-76
2023/03/25 07:57:57;;;;;;;0.52;0.35;;;;;;;4.14;100.00;101972.31;4964820;28;20054;-76
2023/03/25 08:00:26;;;;;;;1.58;0.32;;;;;;;4.31;100.00;101989.84;4962840;28;20055;-76
2023/03/25 08:02:57;;;;;;;5.03;0.65;;;;;;;4.36;100.00;101993.66;4966568;28;20051;-75
2023/03/25 08:05:26;;;;;;;0.63;0.38;;;;;;;4.38;100.00;101992.09;4963042;28;20047;-75
2023/03/25 08:07:58;;;;;;;0.90;0.40;;;;;;;4.35;100.00;101986.75;4965685;28;20075;-75
2023/03/25 08:10:28;;;;;;;1.17;0.68;;;;;;;4.28;100.00;101984.47;4962421;28;20050;-74
2023/03/25 08:12:57;;;;;;;2.40;0.45;;;;;;;4.25;100.00;101976.59;4965869;28;20507;-78
2023/03/25 08:15:25;;;;;;;2.08;0.73;;;;;;;4.27;100.00;101984.41;4960725;28;20061;-77
2023/03/25 08:17:56;;;;;;;0.40;0.20;;;;;;;4.25;100.00;101979.16;4966185;28;20081;-75
2023/03/25 08:20:25;;;;;;;3.88;0.60;;;;;;;4.32;100.00;101983.94;4964447;28;20059;-77
2023/03/25 08:22:53;;;;;;;0.68;0.38;;;;;;;4.35;100.00;101986.75;4963598;28;20078;-75
2023/03/25 08:25:23;;;;;;;1.40;0.15;;;;;;;4.31;100.00;101983.84;4963473;28;20065;-75
2023/03/25 08:27:51;;;;;;;0.40;0.40;;;;;;;4.42;100.00;101985.50;4967584;28;20062;-74
2023/03/25 08:30:21;;;;;;;0.95;0.40;;;;;;;4.45;100.00;101982.31;4965760;28;20074;-77
2023/03/25 08:32:53;;;;;;;1.10;0.20;;;;;;;4.51;100.00;101977.59;4964129;28;20053;-74
2023/03/25 08:35:24;;;;;;;0.65;0.30;;;;;;;4.56;100.00;101971.19;4966277;28;20054;-74
2023/03/25 08:38:06;;;;;;;2.65;0.52;;;;;;;4.56;98.97;101981.44;4952616;28;20539;-75
2023/03/25 08:40:35;;;;;;;0.75;0.32;;;;;;;4.53;99.43;101981.19;4946925;28;20127;-75
2023/03/25 08:43:06;;;;;;;1.63;0.50;;;;;;;4.47;98.98;101978.19;4949238;28;20119;-76
2023/03/25 08:45:35;;;;;;;0.68;0.43;;;;;;;4.37;98.86;101980.03;4950250;28;20055;-75
2023/03/25 08:48:05;;;;;;;0.77;0.45;;;;;;;4.30;99.25;101982.94;4947193;28;20047;-75
2023/03/25 08:50:36;;;;;;;0.30;0.22;;;;;;;4.26;99.45;101975.81;4945651;28;20043;-74
2023/03/25 08:53:05;;;;;;;0.10;0.10;;;;;;;4.25;99.23;101978.25;4945740;28;20051;-76
2023/03/25 08:55:33;;;;;;;0.38;0.30;;;;;;;4.21;99.05;101974.56;4946033;28;20054;-76
2023/03/25 08:58:03;;;;;;;0.40;0.20;;;;;;;4.21;98.95;101969.44;4945585;28;20055;-76
2023/03/25 09:00:36;;;;;;;0.65;0.20;;;;;;;4.20;99.22;101968.56;4946919;28;20051;-75
2023/03/25 09:03:06;;;;;;;1.80;0.38;;;;;;;4.20;99.21;101960.88;4951309;28;20051;-75
2023/03/25 09:05:38;;;;;;;1.05;0.30;;;;;;;4.23;98.87;101959.31;4943558;28;20119;-75
2023/03/25 09:08:08;;;;;;;1.10;0.30;;;;;;;4.21;98.80;101956.63;4942908;28;20083;-76
2023/03/25 09:10:36;;;;;;;0.35;0.25;;;;;;;4.22;97.69;101963.56;4945595;28;20140;-75
2023/03/25 09:13:06;;;;;;;1.48;0.30;;;;;;;4.18;96.66;101951.28;4947448;28;20049;-75
2023/03/25 09:15:34;;;;;;;0.52;0.20;;;;;;;4.14;95.75;101960.41;4945891;28;20552;-75
2023/03/25 09:18:03;;;;;;;1.77;0.70;;;;;;;4.09;95.23;101946.38;4946446;28;20047;-75
2023/03/25 09:20:32;;;;;;;3.33;0.60;;;;;;;4.05;95.54;101949.47;4947841;28;20074;-76
2023/03/25 09:23:02;;;;;;;0.55;0.30;;;;;;;4.01;95.18;101946.56;4944666;28;20055;-77
2023/03/25 09:25:31;;;;;;;0.25;0.20;;;;;;;3.95;94.56;101942.78;4947439;28;20258;-75
2023/03/25 09:27:59;;;;;;;4.55;0.65;;;;;;;3.91;95.30;101947.56;4946370;28;20062;-75
2023/03/25 09:30:28;;;;;;;1.05;0.32;;;;;;;3.88;94.89;101939.66;4949065;28;20051;-75
2023/03/25 09:32:57;;;;;;;0.43;0.30;;;;;;;3.83;95.38;101939.31;4947798;28;20051;-76
2023/03/25 09:35:25;;;;;;;1.48;0.32;;;;;;;3.81;94.45;101932.28;4946206;28;20130;-77
2023/03/25 09:37:54;;;;;;;0.68;0.28;;;;;;;3.74;94.74;101936.94;4960045;28;20069;-77
2023/03/25 09:40:25;;;;;;;1.85;0.43;;;;;;;3.73;95.53;101939.38;4959985;28;20046;-76
2023/03/25 09:43:08;;;;;;;0.70;0.40;;;;;;;3.70;94.98;101940.03;4963478;28;20061;-77
2023/03/25 09:45:43;;;;;;;2.63;1.48;;;;;;;3.65;95.74;101925.13;4964838;28;20055;-75
2023/03/25 09:48:25;;;;;;;1.52;0.28;;;;;;;3.65;95.71;101930.22;4963997;28;20062;-75
2023/03/25 09:50:54;;;;;;;1.02;0.30;;;;;;;3.60;95.63;101919.66;4962836;28;20094;-76
2023/03/25 09:53:32;;;;;;;1.10;0.45;;;;;;;3.57;95.43;101921.94;4961720;28;20055;-74
2023/03/25 09:56:04;;;;;;;2.63;0.95;;;;;;;3.53;95.73;101918.28;4963046;28;20119;-76
2023/03/25 09:58:41;;;;;;;1.20;0.55;;;;;;;3.51;95.91;101911.28;4966746;28;20115;-74
2023/03/25 10:01:31;;;;;;;1.13;0.35;;;;;;;3.45;95.87;101908.22;4969469;28;20462;-75
2023/03/25 10:04:16;;;;;;;0.45;0.40;;;;;;;3.44;96.20;101914.13;4972729;28;20086;-74
2023/03/25 10:06:53;;;;;;;0.60;0.20;;;;;;;3.41;96.76;101922.44;4969628;28;20062;-74
2023/03/25 10:09:43;;;;;;;0.85;0.20;;;;;;;3.36;96.19;101910.97;4965219;28;20039;-75
2023/03/25 10:12:31;;;;;;;0.60;0.25;;;;;;;3.37;97.08;101912.78;4966575;28;20058;-76
2023/03/25 10:15:12;;;;;;;2.00;0.50;;;;;;;3.36;97.59;101916.09;4964217;28;20252;-77
2023/03/25 10:17:55;;;;;;;0.20;0.20;;;;;;;3.34;96.83;101917.63;4966562;28;20055;-77
2023/03/25 10:20:35;;;;;;;0.60;0.40;;;;;;;3.32;97.52;101914.06;4970190;28;20571;-78
2023/03/25 10:23:14;;;;;;;0.98;0.30;;;;;;;3.31;97.21;101917.41;4963891;28;20600;-77
2023/03/25 10:25:48;;;;;;;1.35;0.20;;;;;;;3.27;98.07;101908.59;4966878;28;20576;-79
2023/03/25 10:28:28;;;;;;;2.63;0.50;;;;;;;3.27;97.90;101907.69;4963439;28;20145;-79
2023/03/25 10:30:58;;;;;;;0.85;0.30;;;;;;;3.26;98.59;101905.94;4963949;28;20092;-79
2023/03/25 10:33:33;;;;;;;1.15;0.50;;;;;;;3.25;98.56;101906.69;4967960;28;20632;-78
2023/03/25 10:36:04;;;;;;;1.23;0.57;;;;;;;3.25;98.17;101912.72;4971124;28;20050;-80
2023/03/25 10:38:36;;;;;;;0.38;0.28;;;;;;;3.24;98.38;101910.03;4968679;28;20075;-82
2023/03/25 10:41:15;;;;;;;1.03;0.40;;;;;;;3.23;98.68;101913.34;4966045;28;20051;-81
2023/03/25 10:43:46;;;;;;;0.45;0.35;;;;;;;3.21;97.97;101907.22;4967779;28;20316;-82
2023/03/25 10:46:23;;;;;;;0.40;0.30;;;;;;;3.20;99.01;101921.69;4965475;28;20050;-81
2023/03/25 10:48:52;;;;;;;0.93;0.50;;;;;;;3.19;98.10;101919.03;4966041;28;20092;-80
2023/03/25 10:51:30;;;;;;;0.50;0.30;;;;;;;3.18;98.27;101917.22;4967008;28;20109;-80
2023/03/25 10:54:00;;;;;;;1.10;0.50;;;;;;;3.14;99.15;101917.00;4969423;28;20139;-80
2023/03/25 10:56:34;;;;;;;1.15;0.40;;;;;;;3.15;98.97;101918.75;4964715;28;20058;-79
2023/03/25 10:59:12;;;;;;;0.20;0.20;;;;;;;3.16;98.37;101919.66;4966008;28;20047;-79
2023/03/25 11:01:41;;;;;;;1.25;0.28;;;;;;;3.15;98.58;101916.19;4962557;28;20055;-78
2023/03/25 11:04:14;;;;;;;0.82;0.32;;;;;;;3.16;99.20;101922.22;4964998;28;20047;-78
2023/03/25 11:06:45;;;;;;;1.17;0.38;;;;;;;3.15;98.81;101923.88;4963520;28;20051;-78
2023/03/25 11:09:17;;;;;;;0.20;0.20;;;;;;;3.12;99.44;101931.31;4965316;28;20142;-78
2023/03/25 11:11:47;;;;;;;0.32;0.17;;;;;;;3.10;99.00;101932.88;4963020;28;20086;-78
2023/03/25 11:14:22;;;;;;;0.15;0.10;;;;;;;3.10;100.00;101944.75;4966572;28;20055;-78
2023/03/25 11:16:55;;;;;;;1.10;0.10;;;;;;;3.11;100.00;101938.88;4965792;28;20042;-78
2023/03/25 11:19:31;;;;;;;0.15;0.10;;;;;;;3.09;99.81;101938.75;4969721;28;20061;-78
2023/03/25 11:22:03;;;;;;;0.85;0.20;;;;;;;3.09;99.93;101943.88;4964323;28;20279;-78
2023/03/25 11:24:41;;;;;;;0.63;0.50;;;;;;;3.05;99.95;101940.97;4968092;28;20062;-78
2023/03/25 11:27:11;;;;;;;0.47;0.30;;;;;;;3.07;100.00;101944.50;4970429;28;20055;-78
2023/03/25 11:29:42;;;;;;;1.33;0.73;;;;;;;3.06;99.98;101940.16;4966008;28;20055;-78
2023/03/25 11:32:15;;;;;;;1.23;0.73;;;;;;;2.99;100.00;101927.69;4963028;28;20050;-78
2023/03/25 11:34:48;;;;;;;2.20;0.80;;;;;;;3.08;99.78;101939.50;4966179;28;20153;-78
2023/03/25 11:37:19;;;;;;;1.00;0.70;;;;;;;2.99;100.00;101927.69;4966551;28;20148;-78
2023/03/25 11:39:54;;;;;;;3.15;0.63;;;;;;;3.06;100.00;101941.06;4963169;28;20078;-78
2023/03/25 11:42:32;;;;;;;1.77;0.68;;;;;;;3.05;100.00;101938.41;4967293;28;20054;-77
2023/03/25 11:45:03;;;;;;;3.97;0.93;;;;;;;3.00;99.67;101935.47;4966381;28;20536;-77
2023/03/25 11:47:34;;;;;;;3.53;0.70;;;;;;;3.03;100.00;101956.16;4964554;28;20526;-77
2023/03/25 11:50:04;;;;;;;2.30;1.30;;;;;;;3.03;99.50;101952.72;4962050;28;20567;-77
2023/03/25 11:52:41;;;;;;;1.17;0.82;;;;;;;2.99;99.55;101946.47;4965332;28;20070;-78
2023/03/25 11:55:18;;;;;;;1.38;0.80;;;;;;;3.00;100.00;101953.38;4963199;28;20552;-77